createdAt,value
2024-03-11T00:00:47.015Z,44.17
2024-03-11T00:03:14.696Z,40.07
2024-03-11T00:05:42.090Z,49.07
2024-03-11T00:08:10.757Z,46.73
2024-03-11T00:10:37.851Z,46.47
2024-03-11T00:13:04.887Z,47.43
2024-03-11T00:15:32.129Z,46.53
2024-03-11T00:17:59.130Z,51.97
2024-03-11T00:20:26.755Z,45.97
2024-03-11T00:22:54.215Z,48.83
2024-03-11T00:25:21.162Z,51.30
2024-03-11T00:27:48.116Z,58.73
2024-03-11T00:30:16.532Z,44.57
2024-03-11T00:32:47.890Z,50.23
2024-03-11T00:35:16.401Z,46.23
2024-03-11T00:37:43.732Z,51.07
2024-03-11T00:40:11.515Z,54.47
2024-03-11T00:42:41.428Z,47.33
2024-03-11T00:45:12.652Z,53.70
2024-03-11T00:47:44.551Z,49.03
2024-03-11T00:50:14.837Z,52.27
2024-03-11T00:52:43.641Z,54.20
2024-03-11T00:55:11.081Z,58.47
2024-03-11T00:57:41.538Z,51.93
2024-03-11T01:00:13.310Z,56.63
2024-03-11T01:02:41.108Z,52.57
2024-03-11T01:05:10.357Z,57.70
2024-03-11T01:07:45.094Z,62.47
2024-03-11T01:10:16.282Z,64.63
2024-03-11T01:12:43.538Z,63.30
2024-03-11T01:15:12.095Z,58.13
2024-03-11T01:17:39.494Z,59.93
2024-03-11T01:20:11.294Z,64.67
2024-03-11T01:22:38.741Z,62.00
2024-03-11T01:25:07.167Z,63.80
2024-03-11T01:27:34.431Z,59.10
2024-03-11T01:30:02.337Z,66.17
2024-03-11T01:32:30.571Z,65.20
2024-03-11T01:35:00.420Z,61.67
2024-03-11T01:37:27.768Z,68.53
2024-03-11T01:39:54.864Z,63.90
2024-03-11T01:42:21.941Z,64.57
2024-03-11T01:44:51.374Z,64.63
2024-03-11T01:47:20.563Z,56.63
2024-03-11T01:49:52.451Z,65.20
2024-03-11T01:52:31.961Z,58.20
2024-03-11T01:54:59.690Z,66.77
2024-03-11T01:57:28.181Z,65.00
2024-03-11T01:59:55.941Z,70.17
2024-03-11T02:02:23.311Z,76.90
2024-03-11T02:04:51.377Z,68.13
2024-03-11T02:07:20.457Z,66.47
2024-03-11T02:09:48.477Z,62.10
2024-03-11T02:12:19.479Z,68.30
2024-03-11T02:14:47.381Z,68.90
2024-03-11T02:17:18.486Z,79.30
2024-03-11T02:19:45.993Z,68.93
2024-03-11T02:22:13.440Z,68.40
2024-03-11T02:24:41.196Z,75.90
2024-03-11T02:27:09.178Z,67.00
2024-03-11T02:29:37.365Z,73.93
2024-03-11T02:32:04.540Z,77.37
2024-03-11T02:34:31.824Z,69.47
2024-03-11T02:36:58.748Z,69.80
2024-03-11T02:39:29.141Z,71.40
2024-03-11T02:41:56.075Z,74.20
2024-03-11T02:44:23.891Z,69.03
2024-03-11T02:46:50.848Z,71.77
2024-03-11T02:49:17.869Z,72.37
2024-03-11T02:51:46.039Z,71.73
2024-03-11T02:54:12.915Z,71.83
2024-03-11T02:56:39.835Z,86.53
2024-03-11T02:59:09.370Z,76.43
2024-03-11T03:01:36.229Z,71.87
2024-03-11T03:04:03.996Z,80.40
2024-03-11T03:06:30.883Z,85.73
2024-03-11T03:09:00.669Z,80.47
2024-03-11T03:11:27.594Z,80.30
2024-03-11T03:13:54.434Z,89.20
2024-03-11T03:16:21.373Z,78.40
2024-03-11T03:18:48.239Z,81.83
2024-03-11T03:21:15.121Z,92.93
2024-03-11T03:23:42.097Z,86.77
2024-03-11T03:26:09.404Z,76.93
2024-03-11T03:28:36.404Z,88.37
2024-03-11T03:31:06.013Z,82.17
2024-03-11T03:33:33.149Z,92.40
2024-03-11T03:36:01.175Z,85.50
2024-03-11T03:38:28.081Z,85.03
2024-03-11T03:40:55.045Z,82.47
2024-03-11T03:43:21.931Z,83.93
2024-03-11T03:45:49.611Z,93.47
2024-03-11T03:48:17.626Z,86.47
2024-03-11T03:50:44.776Z,92.17
2024-03-11T03:53:11.859Z,98.60
2024-03-11T03:55:39.037Z,96.83
2024-03-11T03:58:06.468Z,86.37
2024-03-11T04:00:36.609Z,94.63
2024-03-11T04:03:06.655Z,93.83
2024-03-11T04:05:33.804Z,97.30
2024-03-11T04:08:01.048Z,100.43
2024-03-11T04:10:28.236Z,87.73
2024-03-11T04:12:57.056Z,97.07
2024-03-11T04:15:25.195Z,95.03
2024-03-11T04:17:57.061Z,94.90
2024-03-11T04:20:25.152Z,93.57
2024-03-11T04:22:52.548Z,95.17
2024-03-11T04:25:24.140Z,96.37
2024-03-11T04:27:54.145Z,94.40
2024-03-11T04:30:23.773Z,102.03
2024-03-11T04:32:54.450Z,95.00
2024-03-11T04:35:35.493Z,100.33
2024-03-11T04:38:07.115Z,98.57
2024-03-11T04:40:36.408Z,95.90
2024-03-11T04:43:04.107Z,101.47
2024-03-11T04:45:31.759Z,91.80
2024-03-11T04:48:00.818Z,98.87
2024-03-11T04:50:30.346Z,107.20
2024-03-11T04:53:02.303Z,101.93
2024-03-11T04:55:29.869Z,103.33
2024-03-11T04:57:57.977Z,95.77
2024-03-11T05:00:29.018Z,104.47
2024-03-11T05:03:00.618Z,102.33
2024-03-11T05:05:38.421Z,90.57
2024-03-11T05:08:06.826Z,94.20
2024-03-11T05:10:34.315Z,94.13
2024-03-11T05:13:01.252Z,95.13
2024-03-11T05:15:28.621Z,91.60
2024-03-11T05:17:56.345Z,90.87
2024-03-11T05:20:23.539Z,90.00
2024-03-11T05:22:51.529Z,88.13
2024-03-11T05:25:22.108Z,91.77
2024-03-11T05:27:51.493Z,97.60
2024-03-11T05:30:21.176Z,89.10
2024-03-11T05:32:48.596Z,91.97
2024-03-11T05:35:16.377Z,98.80
2024-03-11T05:37:44.765Z,93.30
2024-03-11T05:40:16.092Z,90.07
2024-03-11T05:42:43.433Z,99.50
2024-03-11T05:45:12.027Z,100.40
2024-03-11T05:47:39.360Z,112.53
2024-03-11T05:50:07.021Z,106.00
2024-03-11T05:52:34.963Z,106.90
2024-03-11T05:55:04.867Z,107.23
2024-03-11T05:57:37.238Z,102.57
2024-03-11T06:00:11.308Z,94.17
2024-03-11T06:02:39.151Z,103.67
2024-03-11T06:05:07.414Z,88.10
2024-03-11T06:07:35.187Z,93.53
2024-03-11T06:10:02.661Z,86.30
2024-03-11T06:12:32.989Z,94.43
2024-03-11T06:14:59.882Z,93.00
2024-03-11T06:17:28.204Z,93.57
2024-03-11T06:19:55.089Z,92.77
2024-03-11T06:22:22.406Z,94.43
2024-03-11T06:24:51.803Z,94.93
2024-03-11T06:27:19.190Z,80.83
2024-03-11T06:29:46.153Z,97.53
2024-03-11T06:32:14.414Z,110.60
2024-03-11T06:34:41.656Z,96.43
2024-03-11T06:37:09.017Z,97.30
2024-03-11T06:39:35.937Z,101.90
2024-03-11T06:42:03.244Z,86.43
2024-03-11T06:44:38.905Z,90.47
2024-03-11T06:47:13.014Z,85.83
2024-03-11T06:49:40.206Z,89.80
2024-03-11T06:52:08.808Z,78.93
2024-03-11T06:54:37.845Z,77.07
2024-03-11T06:57:07.725Z,77.70
2024-03-11T06:59:35.578Z,82.93
2024-03-11T07:02:03.549Z,84.50
2024-03-11T07:04:32.973Z,89.57
2024-03-11T07:07:00.740Z,85.83
2024-03-11T07:09:29.604Z,85.07
2024-03-11T07:11:56.751Z,79.33
2024-03-11T07:14:25.824Z,82.67
2024-03-11T07:16:57.266Z,75.73
2024-03-11T07:19:28.071Z,72.40
2024-03-11T07:21:55.450Z,76.50
2024-03-11T07:24:22.418Z,78.00
2024-03-11T07:26:49.318Z,74.83
2024-03-11T07:29:16.230Z,83.20
2024-03-11T07:31:45.142Z,76.70
2024-03-11T07:34:12.251Z,83.17
2024-03-11T07:36:39.174Z,75.87
2024-03-11T07:39:06.094Z,80.47
2024-03-11T07:41:32.989Z,77.47
2024-03-11T07:43:59.853Z,81.23
2024-03-11T07:46:26.728Z,77.70
2024-03-11T07:48:55.748Z,74.87
2024-03-11T07:51:22.840Z,78.97
2024-03-11T07:53:49.901Z,67.80
2024-03-11T07:56:16.846Z,66.67
2024-03-11T07:58:43.736Z,63.97
2024-03-11T08:01:11.785Z,68.03
2024-03-11T08:03:38.882Z,66.60
2024-03-11T08:06:05.960Z,61.73
2024-03-11T08:08:32.820Z,71.27
2024-03-11T08:10:59.882Z,70.30
2024-03-11T08:13:26.754Z,62.60
2024-03-11T08:15:53.597Z,60.00
2024-03-11T08:18:21.766Z,67.90
2024-03-11T08:20:48.680Z,64.57
2024-03-11T08:23:15.679Z,67.17
2024-03-11T08:25:46.883Z,70.07
2024-03-11T08:28:17.066Z,67.13
2024-03-11T08:30:45.098Z,68.33
2024-03-11T08:33:14.093Z,63.13
2024-03-11T08:35:42.115Z,57.43
2024-03-11T08:38:09.594Z,63.60
2024-03-11T08:40:39.694Z,55.73
2024-03-11T08:43:07.045Z,57.43
2024-03-11T08:45:34.808Z,55.43
2024-03-11T08:48:01.984Z,52.37
2024-03-11T08:50:29.098Z,51.83
2024-03-11T08:52:56.213Z,56.47
2024-03-11T08:55:23.268Z,57.57
2024-03-11T08:57:50.865Z,59.67
2024-03-11T09:00:20.141Z,62.80
2024-03-11T09:02:47.935Z,60.67
2024-03-11T09:05:19.894Z,56.20
2024-03-11T09:07:48.267Z,55.40
2024-03-11T09:10:16.105Z,59.20
2024-03-11T09:12:44.229Z,63.10
2024-03-11T09:15:19.959Z,61.77
2024-03-11T09:17:51.520Z,60.93
2024-03-11T09:20:21.700Z,62.27
2024-03-11T09:22:51.340Z,84.20
2024-03-11T09:25:26.532Z,100.93
2024-03-11T09:27:55.900Z,55.27
2024-03-11T09:30:23.209Z,45.53
2024-03-11T09:32:51.503Z,51.10
2024-03-11T09:35:19.506Z,50.33
2024-03-11T09:37:48.316Z,47.50
2024-03-11T09:40:19.297Z,47.10
2024-03-11T09:42:50.008Z,45.23
2024-03-11T09:45:23.844Z,46.77
2024-03-11T09:47:58.580Z,44.00
2024-03-11T09:50:28.977Z,46.27
2024-03-11T09:52:58.807Z,41.07
2024-03-11T09:55:32.869Z,40.73
2024-03-11T09:58:08.939Z,41.37
2024-03-11T10:00:40.859Z,41.30
2024-03-11T10:03:13.018Z,39.90
2024-03-11T10:05:41.166Z,41.90
2024-03-11T10:08:08.072Z,42.90
2024-03-11T10:10:35.955Z,37.50
2024-03-11T10:13:06.364Z,37.63
2024-03-11T10:15:34.971Z,36.37
2024-03-11T10:18:11.032Z,36.20
2024-03-11T10:20:38.920Z,38.70
2024-03-11T10:23:08.768Z,38.37
2024-03-11T10:25:36.440Z,43.57
2024-03-11T10:28:07.758Z,44.70
2024-03-11T10:30:34.829Z,37.17
2024-03-11T10:33:05.028Z,37.77
2024-03-11T10:35:35.232Z,38.37
2024-03-11T10:38:13.806Z,34.90
2024-03-11T10:40:42.702Z,37.30
2024-03-11T10:43:24.904Z,36.27
2024-03-11T10:45:52.147Z,38.33
2024-03-11T10:48:19.964Z,38.50
2024-03-11T10:50:46.980Z,36.40
2024-03-11T10:53:22.808Z,36.47
2024-03-11T10:55:56.748Z,43.43
2024-03-11T10:58:27.467Z,37.83
2024-03-11T11:01:02.382Z,39.87
2024-03-11T11:03:32.109Z,39.80
2024-03-11T11:06:02.923Z,42.30
2024-03-11T11:08:33.073Z,42.50
2024-03-11T11:11:00.625Z,40.60
2024-03-11T11:13:31.063Z,39.10
2024-03-11T11:15:59.543Z,38.87
2024-03-11T11:18:28.897Z,38.73
2024-03-11T11:20:58.089Z,38.00
2024-03-11T11:23:29.115Z,41.37
2024-03-11T11:25:57.720Z,42.43
2024-03-11T11:28:29.830Z,40.63
2024-03-11T11:31:27.556Z,36.87
2024-03-11T11:33:58.017Z,47.03
2024-03-11T11:36:31.580Z,40.00
2024-03-11T11:39:15.841Z,40.80
2024-03-11T11:41:47.635Z,42.23
2024-03-11T11:44:30.943Z,41.90
2024-03-11T11:47:07.821Z,43.57
2024-03-11T11:49:42.090Z,45.00
2024-03-11T11:52:09.691Z,42.40
2024-03-11T11:54:38.139Z,47.27
2024-03-11T11:57:15.359Z,51.23
2024-03-11T11:59:45.029Z,48.90
2024-03-11T12:02:32.899Z,49.30
2024-03-11T12:05:07.033Z,40.77
2024-03-11T12:07:41.268Z,50.07
2024-03-11T12:10:12.983Z,46.03
2024-03-11T12:12:45.204Z,47.00
2024-03-11T12:15:21.326Z,39.83
2024-03-11T12:17:52.100Z,45.97
2024-03-11T12:20:19.196Z,38.03
2024-03-11T12:22:46.198Z,44.23
2024-03-11T12:25:15.261Z,36.57
2024-03-11T12:27:43.997Z,34.37
2024-03-11T12:30:20.051Z,36.43
2024-03-11T12:33:02.001Z,36.43
2024-03-11T12:35:29.736Z,35.43
2024-03-11T12:38:00.729Z,34.17
2024-03-11T12:40:31.281Z,29.60
2024-03-11T12:43:00.741Z,28.00
2024-03-11T12:45:44.313Z,32.57
2024-03-11T12:48:15.084Z,33.17
2024-03-11T12:50:47.172Z,32.63
2024-03-11T12:53:15.090Z,30.00
2024-03-11T12:55:44.496Z,39.33
2024-03-11T12:58:17.143Z,34.00
2024-03-11T13:00:49.239Z,35.60
2024-03-11T13:03:20.302Z,33.90
2024-03-11T13:06:02.955Z,30.80
2024-03-11T13:08:31.673Z,34.77
2024-03-11T13:11:09.908Z,31.57
2024-03-11T13:13:44.070Z,32.90
2024-03-11T13:16:15.458Z,35.53
2024-03-11T13:18:44.664Z,32.93
2024-03-11T13:21:12.433Z,29.73
2024-03-11T13:23:44.751Z,30.60
2024-03-11T13:26:14.278Z,31.83
2024-03-11T13:28:41.855Z,30.43
2024-03-11T13:31:12.669Z,27.10
2024-03-11T13:33:44.128Z,29.90
2024-03-11T13:36:11.985Z,27.27
2024-03-11T13:38:39.078Z,25.07
2024-03-11T13:41:07.753Z,22.30
2024-03-11T13:43:35.795Z,20.13
2024-03-11T13:46:03.178Z,20.60
2024-03-11T13:48:30.258Z,23.50
2024-03-11T13:50:58.536Z,19.53
2024-03-11T13:53:25.858Z,22.13
2024-03-11T13:55:53.287Z,24.47
2024-03-11T13:58:21.342Z,23.90
2024-03-11T14:00:51.137Z,23.27
2024-03-11T14:03:22.329Z,23.73
2024-03-11T14:05:51.000Z,26.53
2024-03-11T14:08:24.328Z,25.87
2024-03-11T14:10:51.296Z,26.90
2024-03-11T14:13:22.093Z,29.20
2024-03-11T14:15:49.122Z,29.23
2024-03-11T14:18:17.326Z,31.87
2024-03-11T14:20:45.204Z,29.90
2024-03-11T14:23:12.113Z,31.00
2024-03-11T14:25:39.209Z,37.57
2024-03-11T14:28:07.927Z,30.33
2024-03-11T14:30:39.290Z,31.77
2024-03-11T14:33:09.394Z,31.07
2024-03-11T14:35:37.425Z,32.33
2024-03-11T14:38:04.567Z,29.90
2024-03-11T14:40:33.362Z,36.67
2024-03-11T14:43:01.628Z,33.00
2024-03-11T14:45:33.719Z,26.70
2024-03-11T14:48:04.607Z,30.00
2024-03-11T14:50:31.685Z,29.70
2024-03-11T14:52:58.777Z,31.17
2024-03-11T14:55:38.226Z,26.87
2024-03-11T14:58:09.424Z,29.97
2024-03-11T15:00:50.712Z,27.43
2024-03-11T15:03:19.665Z,30.10
2024-03-11T15:05:47.999Z,26.70
2024-03-11T15:08:23.431Z,28.47
2024-03-11T15:10:51.969Z,28.07
2024-03-11T15:13:22.208Z,31.93
2024-03-11T15:15:52.490Z,32.10
2024-03-11T15:18:20.575Z,31.20
2024-03-11T15:20:53.195Z,38.00
2024-03-11T15:23:25.396Z,34.87
2024-03-11T15:25:54.944Z,36.00
2024-03-11T15:28:22.021Z,33.63
2024-03-11T15:30:49.742Z,31.93
2024-03-11T15:33:21.096Z,38.30
2024-03-11T15:35:51.059Z,36.90
2024-03-11T15:38:21.478Z,38.13
2024-03-11T15:40:49.925Z,37.60
2024-03-11T15:43:20.064Z,47.03
2024-03-11T15:45:48.435Z,42.70
2024-03-11T15:48:16.213Z,50.20
2024-03-11T15:50:43.359Z,47.97
2024-03-11T15:53:11.338Z,42.70
2024-03-11T15:55:38.965Z,44.10
2024-03-11T15:58:06.188Z,41.00
2024-03-11T16:00:34.103Z,40.13
2024-03-11T16:03:06.208Z,43.63
2024-03-11T16:05:33.460Z,36.17
2024-03-11T16:08:03.752Z,36.07
2024-03-11T16:10:31.014Z,39.10
2024-03-11T16:12:58.513Z,36.93
2024-03-11T16:15:26.591Z,32.87
2024-03-11T16:17:58.560Z,34.40
2024-03-11T16:20:26.430Z,34.70
2024-03-11T16:22:55.106Z,32.93
2024-03-11T16:25:24.613Z,29.43
2024-03-11T16:27:53.433Z,32.87
2024-03-11T16:30:22.611Z,24.93
2024-03-11T16:32:57.333Z,31.00
2024-03-11T16:35:26.234Z,28.73
2024-03-11T16:37:54.897Z,30.23
2024-03-11T16:40:28.230Z,35.97
2024-03-11T16:43:00.035Z,28.93
2024-03-11T16:45:29.015Z,30.47
2024-03-11T16:47:58.937Z,26.77
2024-03-11T16:50:25.910Z,32.37
2024-03-11T16:52:54.449Z,31.50
2024-03-11T16:55:26.302Z,30.27
2024-03-11T16:57:55.882Z,31.87
2024-03-11T17:00:23.945Z,30.57
2024-03-11T17:02:54.508Z,33.53
2024-03-11T17:05:23.788Z,32.53
2024-03-11T17:07:56.038Z,36.50
2024-03-11T17:10:25.504Z,29.30
2024-03-11T17:12:52.733Z,30.13
2024-03-11T17:15:28.908Z,35.67
2024-03-11T17:17:57.620Z,42.37
2024-03-11T17:20:26.477Z,39.60
2024-03-11T17:22:55.766Z,40.43
2024-03-11T17:25:26.124Z,41.37
2024-03-11T17:27:53.718Z,39.43
2024-03-11T17:30:23.559Z,39.30
2024-03-11T17:32:50.790Z,44.40
2024-03-11T17:35:17.945Z,39.30
2024-03-11T17:37:48.339Z,36.23
2024-03-11T17:40:20.129Z,41.87
2024-03-11T17:42:49.868Z,35.67
2024-03-11T17:45:18.046Z,40.70
2024-03-11T17:47:46.203Z,34.40
2024-03-11T17:50:20.431Z,33.10
2024-03-11T17:52:53.699Z,29.03
2024-03-11T17:55:27.583Z,35.23
2024-03-11T17:57:56.562Z,30.83
2024-03-11T18:00:29.572Z,32.53
2024-03-11T18:02:58.770Z,32.83
2024-03-11T18:05:35.810Z,36.20
2024-03-11T18:08:06.137Z,31.67
2024-03-11T18:10:35.133Z,36.80
2024-03-11T18:13:04.989Z,32.53
2024-03-11T18:15:32.053Z,40.90
2024-03-11T18:18:01.153Z,37.97
2024-03-11T18:20:29.465Z,30.77
2024-03-11T18:22:56.799Z,36.63
2024-03-11T18:25:24.780Z,35.07
2024-03-11T18:27:58.141Z,33.50
2024-03-11T18:30:27.353Z,31.30
2024-03-11T18:32:57.250Z,35.73
2024-03-11T18:35:28.448Z,33.47
2024-03-11T18:37:58.971Z,31.70
2024-03-11T18:40:26.967Z,34.40
2024-03-11T18:42:55.193Z,35.50
2024-03-11T18:45:27.565Z,28.80
2024-03-11T18:47:56.570Z,27.97
2024-03-11T18:50:26.474Z,24.30
2024-03-11T18:53:00.142Z,29.47
2024-03-11T18:55:31.345Z,28.93
2024-03-11T18:57:59.797Z,27.97
2024-03-11T19:00:33.269Z,31.80
2024-03-11T19:03:02.899Z,29.77
2024-03-11T19:05:32.868Z,26.93
2024-03-11T19:08:05.290Z,23.60
2024-03-11T19:10:32.990Z,28.97
2024-03-11T19:13:00.296Z,22.57
2024-03-11T19:15:28.154Z,22.50
2024-03-11T19:17:56.502Z,25.43
2024-03-11T19:20:27.026Z,22.20
2024-03-11T19:22:57.457Z,21.57
2024-03-11T19:25:25.735Z,23.03
2024-03-11T19:27:54.382Z,25.20
2024-03-11T19:30:23.966Z,22.57
2024-03-11T19:32:54.765Z,27.40
2024-03-11T19:35:22.535Z,24.37
2024-03-11T19:38:01.678Z,27.10
2024-03-11T19:40:38.959Z,26.67
2024-03-11T19:43:20.699Z,25.20
2024-03-11T19:46:05.643Z,26.37
2024-03-11T19:49:21.224Z,23.30
2024-03-11T19:52:25.977Z,21.93
2024-03-11T19:55:21.997Z,18.50
2024-03-11T19:58:13.585Z,20.93
2024-03-11T20:01:04.108Z,19.93
2024-03-11T20:04:19.871Z,17.67
2024-03-11T20:07:04.489Z,21.60
2024-03-11T20:10:10.735Z,21.33
2024-03-11T20:13:02.416Z,21.57
2024-03-11T20:15:49.896Z,24.33
2024-03-11T20:18:32.738Z,22.77
2024-03-11T20:21:28.042Z,21.67
2024-03-11T20:24:33.076Z,18.67
2024-03-11T20:27:14.273Z,22.70
2024-03-11T20:29:51.022Z,21.03
2024-03-11T20:33:05.007Z,21.63
2024-03-11T20:35:32.220Z,22.50
2024-03-11T20:38:01.480Z,27.60
2024-03-11T20:40:29.496Z,28.63
2024-03-11T20:42:58.518Z,24.10
2024-03-11T20:45:26.381Z,28.87
2024-03-11T20:47:53.335Z,29.97
2024-03-11T20:50:21.289Z,26.87
2024-03-11T20:52:48.214Z,32.17
2024-03-11T20:55:16.890Z,36.20
2024-03-11T20:57:44.726Z,34.07
2024-03-11T21:00:20.483Z,31.90
2024-03-11T21:02:49.188Z,39.37
2024-03-11T21:05:16.148Z,39.20
2024-03-11T21:07:43.839Z,38.40
2024-03-11T21:10:11.084Z,37.97
2024-03-11T21:12:38.082Z,46.20
2024-03-11T21:15:13.671Z,46.93
2024-03-11T21:17:42.969Z,41.27
2024-03-11T21:20:34.442Z,48.67
2024-03-11T21:23:06.354Z,42.23
2024-03-11T21:25:51.267Z,42.23
2024-03-11T21:28:22.449Z,48.20
2024-03-11T21:30:56.908Z,45.93
2024-03-11T21:33:27.419Z,47.60
2024-03-11T21:35:55.354Z,49.30
2024-03-11T21:38:28.009Z,54.60
2024-03-11T21:40:57.994Z,47.00
2024-03-11T21:43:24.982Z,47.70
2024-03-11T21:45:52.468Z,45.27
2024-03-11T21:48:20.011Z,42.87
2024-03-11T21:50:47.280Z,48.83
2024-03-11T21:53:14.649Z,47.40
2024-03-11T21:55:48.507Z,49.77
2024-03-11T21:58:18.777Z,52.47
2024-03-11T22:00:45.739Z,49.17
2024-03-11T22:03:13.585Z,46.50
2024-03-11T22:05:42.942Z,55.10
2024-03-11T22:08:09.808Z,50.00
2024-03-11T22:10:36.752Z,54.47
2024-03-11T22:13:07.804Z,47.10
2024-03-11T22:15:34.770Z,50.90
2024-03-11T22:18:02.380Z,54.33
2024-03-11T22:20:29.893Z,53.23
2024-03-11T22:22:57.124Z,52.10
2024-03-11T22:25:25.620Z,54.23
2024-03-11T22:27:52.923Z,51.13
2024-03-11T22:30:20.080Z,53.00
2024-03-11T22:32:47.280Z,50.43
2024-03-11T22:35:15.939Z,46.20
2024-03-11T22:37:43.281Z,48.00
2024-03-11T22:40:10.723Z,49.17
2024-03-11T22:42:38.426Z,55.47
2024-03-11T22:45:05.896Z,61.70
2024-03-11T22:47:33.446Z,55.20
2024-03-11T22:50:03.109Z,57.70
2024-03-11T22:52:31.255Z,58.97
2024-03-11T22:54:58.217Z,63.30
2024-03-11T22:57:25.329Z,63.20
2024-03-11T22:59:52.198Z,63.13
2024-03-11T23:02:23.182Z,71.53
2024-03-11T23:04:52.500Z,69.73
2024-03-11T23:07:25.890Z,70.30
2024-03-11T23:09:53.321Z,77.57
2024-03-11T23:12:23.892Z,69.77
2024-03-11T23:14:51.474Z,66.40
2024-03-11T23:17:18.339Z,75.03
2024-03-11T23:19:49.824Z,67.87
2024-03-11T23:22:20.048Z,74.97
2024-03-11T23:24:47.391Z,70.97
2024-03-11T23:27:14.346Z,77.27
2024-03-11T23:29:44.147Z,66.90
2024-03-11T23:32:11.512Z,81.57
2024-03-11T23:34:43.075Z,75.97
2024-03-11T23:37:10.019Z,71.10
2024-03-11T23:39:37.961Z,89.30
2024-03-11T23:42:05.079Z,100.00
2024-03-11T23:44:33.030Z,93.67
2024-03-11T23:46:59.885Z,92.80
2024-03-11T23:49:26.821Z,91.00
2024-03-11T23:51:53.840Z,107.30
2024-03-11T23:54:20.910Z,106.00
2024-03-11T23:56:47.914Z,106.30
2024-03-11T23:59:14.982Z,110.87
